sensor_id;sensor_type;location;lat;lon;timestamp;temperature;humidity
22006;DHT22;11167;46.988;15.470;2023-09-07T00:01:32;21.00;75.40
22006;DHT22;11167;46.988;15.470;2023-09-07T00:03:34;20.90;75.40
22006;DHT22;11167;46.988;15.470;2023-09-07T00:05:35;20.90;75.30
22006;DHT22;11167;46.988;15.470;2023-09-07T00:07:36;20.90;75.40
22006;DHT22;11167;46.988;15.470;2023-09-07T00:09:36;20.90;75.40
22006;DHT22;11167;46.988;15.470;2023-09-07T00:11:37;20.80;75.40
22006;DHT22;11167;46.988;15.470;2023-09-07T00:13:38;20.80;75.40
22006;DHT22;11167;46.988;15.470;2023-09-07T00:15:39;20.80;75.40
22006;DHT22;11167;46.988;15.470;2023-09-07T00:17:40;20.80;75.40
22006;DHT22;11167;46.988;15.470;2023-09-07T00:19:41;20.80;75.50
22006;DHT22;11167;46.988;15.470;2023-09-07T00:21:42;20.80;75.50
22006;DHT22;11167;46.988;15.470;2023-09-07T00:23:43;20.80;75.50
22006;DHT22;11167;46.988;15.470;2023-09-07T00:25:44;20.70;75.50
22006;DHT22;11167;46.988;15.470;2023-09-07T00:27:45;20.70;75.50
22006;DHT22;11167;46.988;15.470;2023-09-07T00:29:46;20.70;75.50
22006;DHT22;11167;46.988;15.470;2023-09-07T00:31:47;20.60;75.50
22006;DHT22;11167;46.988;15.470;2023-09-07T00:33:47;20.70;75.60
22006;DHT22;11167;46.988;15.470;2023-09-07T00:35:48;20.60;75.50
22006;DHT22;11167;46.988;15.470;2023-09-07T00:37:49;20.60;75.60
22006;DHT22;11167;46.988;15.470;2023-09-07T00:39:50;20.60;75.60
22006;DHT22;11167;46.988;15.470;2023-09-07T00:41:53;20.60;75.60
22006;DHT22;11167;46.988;15.470;2023-09-07T00:43:55;20.50;75.60
22006;DHT22;11167;46.988;15.470;2023-09-07T00:45:56;20.50;75.70
22006;DHT22;11167;46.988;15.470;2023-09-07T00:47:57;20.50;75.60
22006;DHT22;11167;46.988;15.470;2023-09-07T00:49:58;20.50;75.60
22006;DHT22;11167;46.988;15.470;2023-09-07T00:51:59;20.40;75.60
22006;DHT22;11167;46.988;15.470;2023-09-07T00:54:00;20.40;75.60
22006;DHT22;11167;46.988;15.470;2023-09-07T00:56:00;20.40;75.60
22006;DHT22;11167;46.988;15.470;2023-09-07T00:58:05;20.40;76.60
22006;DHT22;11167;46.988;15.470;2023-09-07T01:00:06;20.40;75.80
22006;DHT22;11167;46.988;15.470;2023-09-07T01:02:08;20.40;76.60
22006;DHT22;11167;46.988;15.470;2023-09-07T01:04:08;20.30;75.70
22006;DHT22;11167;46.988;15.470;2023-09-07T01:06:22;20.30;75.70
22006;DHT22;11167;46.988;15.470;2023-09-07T01:08:24;20.30;75.90
22006;DHT22;11167;46.988;15.470;2023-09-07T01:10:26;20.30;75.80
22006;DHT22;11167;46.988;15.470;2023-09-07T01:12:27;20.20;75.80
22006;DHT22;11167;46.988;15.470;2023-09-07T01:14:28;20.30;75.80
22006;DHT22;11167;46.988;15.470;2023-09-07T01:16:28;20.30;75.80
22006;DHT22;11167;46.988;15.470;2023-09-07T01:18:29;20.20;75.80
22006;DHT22;11167;46.988;15.470;2023-09-07T01:20:30;20.20;75.90
22006;DHT22;11167;46.988;15.470;2023-09-07T01:22:33;20.20;75.90
22006;DHT22;11167;46.988;15.470;2023-09-07T01:24:34;20.20;76.00
22006;DHT22;11167;46.988;15.470;2023-09-07T01:26:36;20.10;75.90
22006;DHT22;11167;46.988;15.470;2023-09-07T01:28:39;20.10;75.90
22006;DHT22;11167;46.988;15.470;2023-09-07T01:30:40;20.10;76.00
22006;DHT22;11167;46.988;15.470;2023-09-07T01:32:42;20.10;76.00
22006;DHT22;11167;46.988;15.470;2023-09-07T01:34:43;20.10;76.10
22006;DHT22;11167;46.988;15.470;2023-09-07T01:36:44;20.00;76.00
22006;DHT22;11167;46.988;15.470;2023-09-07T01:38:45;20.00;76.00
22006;DHT22;11167;46.988;15.470;2023-09-07T01:40:46;20.00;76.00
22006;DHT22;11167;46.988;15.470;2023-09-07T01:42:47;20.00;76.00
22006;DHT22;11167;46.988;15.470;2023-09-07T01:44:48;20.00;76.00
22006;DHT22;11167;46.988;15.470;2023-09-07T01:46:49;20.00;76.20
22006;DHT22;11167;46.988;15.470;2023-09-07T01:48:50;19.90;76.00
22006;DHT22;11167;46.988;15.470;2023-09-07T01:50:53;19.90;76.00
22006;DHT22;11167;46.988;15.470;2023-09-07T01:52:54;19.90;76.10
22006;DHT22;11167;46.988;15.470;2023-09-07T01:54:55;19.90;76.20
22006;DHT22;11167;46.988;15.470;2023-09-07T01:56:56;19.90;76.20
22006;DHT22;11167;46.988;15.470;2023-09-07T01:58:57;19.90;76.20
22006;DHT22;11167;46.988;15.470;2023-09-07T02:00:59;19.90;76.20
22006;DHT22;11167;46.988;15.470;2023-09-07T02:03:00;19.80;76.20
22006;DHT22;11167;46.988;15.470;2023-09-07T02:05:01;19.80;76.20
22006;DHT22;11167;46.988;15.470;2023-09-07T02:07:02;19.80;76.20
22006;DHT22;11167;46.988;15.470;2023-09-07T02:09:04;19.80;76.20
22006;DHT22;11167;46.988;15.470;2023-09-07T02:11:05;19.80;76.30
22006;DHT22;11167;46.988;15.470;2023-09-07T02:13:07;19.70;76.20
22006;DHT22;11167;46.988;15.470;2023-09-07T02:15:07;19.70;76.30
22006;DHT22;11167;46.988;15.470;2023-09-07T02:17:08;19.70;76.30
22006;DHT22;11167;46.988;15.470;2023-09-07T02:19:09;19.70;76.30
22006;DHT22;11167;46.988;15.470;2023-09-07T02:21:10;19.70;76.30
22006;DHT22;11167;46.988;15.470;2023-09-07T02:23:11;19.70;76.40
22006;DHT22;11167;46.988;15.470;2023-09-07T02:25:12;19.60;76.30
22006;DHT22;11167;46.988;15.470;2023-09-07T02:27:13;19.60;76.40
22006;DHT22;11167;46.988;15.470;2023-09-07T02:29:14;19.60;76.40
22006;DHT22;11167;46.988;15.470;2023-09-07T02:31:15;19.60;76.40
22006;DHT22;11167;46.988;15.470;2023-09-07T02:33:15;19.60;76.50
22006;DHT22;11167;46.988;15.470;2023-09-07T02:35:16;19.60;76.50
22006;DHT22;11167;46.988;15.470;2023-09-07T02:37:17;19.60;76.50
22006;DHT22;11167;46.988;15.470;2023-09-07T02:39:18;19.50;76.40
22006;DHT22;11167;46.988;15.470;2023-09-07T02:41:19;19.50;76.40
22006;DHT22;11167;46.988;15.470;2023-09-07T02:43:20;19.50;76.50
22006;DHT22;11167;46.988;15.470;2023-09-07T02:45:20;19.50;76.50
22006;DHT22;11167;46.988;15.470;2023-09-07T02:47:21;19.50;76.50
22006;DHT22;11167;46.988;15.470;2023-09-07T02:49:22;19.40;76.50
22006;DHT22;11167;46.988;15.470;2023-09-07T02:51:23;19.40;76.50
22006;DHT22;11167;46.988;15.470;2023-09-07T02:53:24;19.40;76.50
22006;DHT22;11167;46.988;15.470;2023-09-07T02:55:29;19.40;76.60
22006;DHT22;11167;46.988;15.470;2023-09-07T02:57:29;19.30;76.50
22006;DHT22;11167;46.988;15.470;2023-09-07T02:59:30;19.40;76.60
22006;DHT22;11167;46.988;15.470;2023-09-07T03:01:30;19.40;76.60
22006;DHT22;11167;46.988;15.470;2023-09-07T03:03:31;19.30;76.60
22006;DHT22;11167;46.988;15.470;2023-09-07T03:05:32;19.30;76.60
22006;DHT22;11167;46.988;15.470;2023-09-07T03:07:33;19.30;76.70
22006;DHT22;11167;46.988;15.470;2023-09-07T03:09:34;19.30;76.70
22006;DHT22;11167;46.988;15.470;2023-09-07T03:11:35;19.30;76.70
22006;DHT22;11167;46.988;15.470;2023-09-07T03:13:36;19.30;76.80
22006;DHT22;11167;46.988;15.470;2023-09-07T03:15:37;19.20;76.70
22006;DHT22;11167;46.988;15.470;2023-09-07T03:17:38;19.20;76.70
22006;DHT22;11167;46.988;15.470;2023-09-07T03:19:39;19.20;76.80
22006;DHT22;11167;46.988;15.470;2023-09-07T03:21:40;19.20;76.80
22006;DHT22;11167;46.988;15.470;2023-09-07T03:23:41;19.20;76.80
22006;DHT22;11167;46.988;15.470;2023-09-07T03:25:43;19.20;76.80
22006;DHT22;11167;46.988;15.470;2023-09-07T03:27:44;19.20;76.90
22006;DHT22;11167;46.988;15.470;2023-09-07T03:29:49;19.10;76.80
22006;DHT22;11167;46.988;15.470;2023-09-07T03:31:52;19.10;76.80
22006;DHT22;11167;46.988;15.470;2023-09-07T03:34:12;19.10;76.90
22006;DHT22;11167;46.988;15.470;2023-09-07T03:36:17;19.10;76.90
22006;DHT22;11167;46.988;15.470;2023-09-07T03:42:55;18.90;76.90
22006;DHT22;11167;46.988;15.470;2023-09-07T03:44:58;19.00;77.00
22006;DHT22;11167;46.988;15.470;2023-09-07T03:47:06;19.00;77.40
22006;DHT22;11167;46.988;15.470;2023-09-07T03:49:13;19.00;77.00
22006;DHT22;11167;46.988;15.470;2023-09-07T03:51:17;19.00;77.10
22006;DHT22;11167;46.988;15.470;2023-09-07T03:53:17;18.90;77.10
22006;DHT22;11167;46.988;15.470;2023-09-07T03:55:27;18.90;77.10
22006;DHT22;11167;46.988;15.470;2023-09-07T03:57:46;18.90;77.10
22006;DHT22;11167;46.988;15.470;2023-09-07T04:01:47;18.90;77.90
22006;DHT22;11167;46.988;15.470;2023-09-07T04:03:53;18.90;77.20
22006;DHT22;11167;46.988;15.470;2023-09-07T04:05:56;18.90;77.20
22006;DHT22;11167;46.988;15.470;2023-09-07T04:08:05;18.80;77.10
22006;DHT22;11167;46.988;15.470;2023-09-07T04:10:14;18.80;77.10
22006;DHT22;11167;46.988;15.470;2023-09-07T04:12:13;18.80;77.10
22006;DHT22;11167;46.988;15.470;2023-09-07T04:14:14;18.80;77.20
22006;DHT22;11167;46.988;15.470;2023-09-07T04:16:17;18.80;77.20
22006;DHT22;11167;46.988;15.470;2023-09-07T04:18:23;18.80;77.20
22006;DHT22;11167;46.988;15.470;2023-09-07T04:20:23;18.80;77.30
22006;DHT22;11167;46.988;15.470;2023-09-07T04:22:25;18.70;77.10
22006;DHT22;11167;46.988;15.470;2023-09-07T04:24:26;18.70;77.20
22006;DHT22;11167;46.988;15.470;2023-09-07T04:26:29;18.70;77.30
22006;DHT22;11167;46.988;15.470;2023-09-07T04:28:31;18.70;77.30
22006;DHT22;11167;46.988;15.470;2023-09-07T04:30:36;18.70;77.30
22006;DHT22;11167;46.988;15.470;2023-09-07T04:32:43;18.70;77.40
22006;DHT22;11167;46.988;15.470;2023-09-07T04:44:38;18.50;77.30
22006;DHT22;11167;46.988;15.470;2023-09-07T05:02:46;18.40;77.50
22006;DHT22;11167;46.988;15.470;2023-09-07T05:06:57;18.40;77.50
22006;DHT22;11167;46.988;15.470;2023-09-07T05:09:11;18.40;77.50
22006;DHT22;11167;46.988;15.470;2023-09-07T05:11:18;18.20;77.30
22006;DHT22;11167;46.988;15.470;2023-09-07T05:13:26;18.40;77.50
22006;DHT22;11167;46.988;15.470;2023-09-07T05:17:45;18.30;77.40
22006;DHT22;11167;46.988;15.470;2023-09-07T05:22:02;18.30;77.60
22006;DHT22;11167;46.988;15.470;2023-09-07T05:24:14;18.30;77.50
22006;DHT22;11167;46.988;15.470;2023-09-07T05:26:20;18.30;77.60
22006;DHT22;11167;46.988;15.470;2023-09-07T05:28:19;18.30;77.50
22006;DHT22;11167;46.988;15.470;2023-09-07T05:30:28;18.20;77.50
22006;DHT22;11167;46.988;15.470;2023-09-07T05:39:26;18.30;77.70
22006;DHT22;11167;46.988;15.470;2023-09-07T05:41:26;18.20;77.70
22006;DHT22;11167;46.988;15.470;2023-09-07T05:43:33;18.20;77.70
22006;DHT22;11167;46.988;15.470;2023-09-07T05:45:37;18.20;77.70
22006;DHT22;11167;46.988;15.470;2023-09-07T05:47:41;18.20;77.70
22006;DHT22;11167;46.988;15.470;2023-09-07T05:49:44;18.20;77.70
22006;DHT22;11167;46.988;15.470;2023-09-07T05:51:47;18.10;77.70
22006;DHT22;11167;46.988;15.470;2023-09-07T05:53:54;18.10;77.80
22006;DHT22;11167;46.988;15.470;2023-09-07T05:55:55;18.10;77.80
22006;DHT22;11167;46.988;15.470;2023-09-07T05:58:04;18.10;77.80
22006;DHT22;11167;46.988;15.470;2023-09-07T06:02:12;18.10;77.80
22006;DHT22;11167;46.988;15.470;2023-09-07T06:04:13;18.10;77.80
22006;DHT22;11167;46.988;15.470;2023-09-07T06:06:13;18.10;77.80
22006;DHT22;11167;46.988;15.470;2023-09-07T06:08:14;18.00;77.80
22006;DHT22;11167;46.988;15.470;2023-09-07T06:10:15;18.00;77.80
22006;DHT22;11167;46.988;15.470;2023-09-07T06:12:18;18.00;77.80
22006;DHT22;11167;46.988;15.470;2023-09-07T06:14:20;18.00;77.80
22006;DHT22;11167;46.988;15.470;2023-09-07T06:16:21;18.00;77.90
22006;DHT22;11167;46.988;15.470;2023-09-07T06:18:21;18.00;77.80
22006;DHT22;11167;46.988;15.470;2023-09-07T06:20:22;18.00;77.80
22006;DHT22;11167;46.988;15.470;2023-09-07T06:22:23;18.00;77.80
22006;DHT22;11167;46.988;15.470;2023-09-07T06:24:24;18.00;77.80
22006;DHT22;11167;46.988;15.470;2023-09-07T06:26:25;18.00;77.80
22006;DHT22;11167;46.988;15.470;2023-09-07T06:28:26;18.00;77.80
22006;DHT22;11167;46.988;15.470;2023-09-07T06:30:27;18.00;77.80
22006;DHT22;11167;46.988;15.470;2023-09-07T06:32:28;18.00;77.90
22006;DHT22;11167;46.988;15.470;2023-09-07T06:34:28;18.00;77.90
22006;DHT22;11167;46.988;15.470;2023-09-07T06:36:29;17.90;77.80
22006;DHT22;11167;46.988;15.470;2023-09-07T06:38:31;17.90;77.80
22006;DHT22;11167;46.988;15.470;2023-09-07T06:40:32;17.90;78.00
22006;DHT22;11167;46.988;15.470;2023-09-07T06:42:33;17.90;78.00
22006;DHT22;11167;46.988;15.470;2023-09-07T06:44:34;17.90;77.90
22006;DHT22;11167;46.988;15.470;2023-09-07T06:46:35;17.90;78.70
22006;DHT22;11167;46.988;15.470;2023-09-07T06:48:36;17.90;78.00
22006;DHT22;11167;46.988;15.470;2023-09-07T06:50:37;17.90;78.00
22006;DHT22;11167;46.988;15.470;2023-09-07T06:52:38;17.90;78.00
22006;DHT22;11167;46.988;15.470;2023-09-07T06:54:40;17.90;78.00
22006;DHT22;11167;46.988;15.470;2023-09-07T06:56:40;17.90;78.00
22006;DHT22;11167;46.988;15.470;2023-09-07T06:58:41;17.90;78.00
22006;DHT22;11167;46.988;15.470;2023-09-07T07:00:42;17.90;78.00
22006;DHT22;11167;46.988;15.470;2023-09-07T07:02:45;17.90;78.00
22006;DHT22;11167;46.988;15.470;2023-09-07T07:04:46;17.90;78.00
22006;DHT22;11167;46.988;15.470;2023-09-07T07:06:46;17.90;78.00
22006;DHT22;11167;46.988;15.470;2023-09-07T07:08:47;17.90;78.00
22006;DHT22;11167;46.988;15.470;2023-09-07T07:10:48;17.90;78.10
22006;DHT22;11167;46.988;15.470;2023-09-07T07:12:49;17.90;78.10
22006;DHT22;11167;46.988;15.470;2023-09-07T07:14:50;17.90;78.00
22006;DHT22;11167;46.988;15.470;2023-09-07T07:16:51;17.90;78.10
22006;DHT22;11167;46.988;15.470;2023-09-07T07:18:52;17.90;78.20
22006;DHT22;11167;46.988;15.470;2023-09-07T07:20:53;17.90;78.10
22006;DHT22;11167;46.988;15.470;2023-09-07T07:22:54;17.90;78.10
22006;DHT22;11167;46.988;15.470;2023-09-07T07:24:55;17.90;78.10
22006;DHT22;11167;46.988;15.470;2023-09-07T07:26:56;17.90;78.00
22006;DHT22;11167;46.988;15.470;2023-09-07T07:28:57;17.90;78.00
22006;DHT22;11167;46.988;15.470;2023-09-07T07:30:57;17.90;78.00
22006;DHT22;11167;46.988;15.470;2023-09-07T07:32:58;17.90;78.00
22006;DHT22;11167;46.988;15.470;2023-09-07T07:34:59;17.90;78.00
22006;DHT22;11167;46.988;15.470;2023-09-07T07:37:01;17.90;78.00
22006;DHT22;11167;46.988;15.470;2023-09-07T07:39:02;17.90;78.00
22006;DHT22;11167;46.988;15.470;2023-09-07T07:41:04;17.90;78.10
22006;DHT22;11167;46.988;15.470;2023-09-07T07:43:04;17.90;78.00
22006;DHT22;11167;46.988;15.470;2023-09-07T07:45:07;17.90;78.20
22006;DHT22;11167;46.988;15.470;2023-09-07T07:47:15;17.90;78.30
22006;DHT22;11167;46.988;15.470;2023-09-07T07:49:21;17.90;79.00
22006;DHT22;11167;46.988;15.470;2023-09-07T07:51:21;17.90;78.30
22006;DHT22;11167;46.988;15.470;2023-09-07T07:53:32;18.00;78.50
22006;DHT22;11167;46.988;15.470;2023-09-07T07:55:39;18.00;78.50
22006;DHT22;11167;46.988;15.470;2023-09-07T07:57:48;18.00;78.50
22006;DHT22;11167;46.988;15.470;2023-09-07T07:59:44;18.00;78.50
22006;DHT22;11167;46.988;15.470;2023-09-07T08:01:47;18.00;78.70
22006;DHT22;11167;46.988;15.470;2023-09-07T08:03:48;18.00;78.70
22006;DHT22;11167;46.988;15.470;2023-09-07T08:05:51;18.00;78.70
22006;DHT22;11167;46.988;15.470;2023-09-07T08:07:55;18.00;78.70
22006;DHT22;11167;46.988;15.470;2023-09-07T08:09:56;18.00;78.90
22006;DHT22;11167;46.988;15.470;2023-09-07T08:11:58;18.00;78.90
22006;DHT22;11167;46.988;15.470;2023-09-07T08:14:00;18.00;79.00
22006;DHT22;11167;46.988;15.470;2023-09-07T08:16:02;18.00;79.20
22006;DHT22;11167;46.988;15.470;2023-09-07T08:18:04;18.10;79.30
22006;DHT22;11167;46.988;15.470;2023-09-07T08:20:10;18.10;79.40
22006;DHT22;11167;46.988;15.470;2023-09-07T08:22:11;18.10;79.50
22006;DHT22;11167;46.988;15.470;2023-09-07T08:24:12;18.10;79.70
22006;DHT22;11167;46.988;15.470;2023-09-07T08:26:15;18.10;79.70
22006;DHT22;11167;46.988;15.470;2023-09-07T08:28:20;18.10;79.80
22006;DHT22;11167;46.988;15.470;2023-09-07T08:30:19;18.20;80.00
22006;DHT22;11167;46.988;15.470;2023-09-07T08:32:22;18.20;80.10
22006;DHT22;11167;46.988;15.470;2023-09-07T08:34:23;18.20;80.10
22006;DHT22;11167;46.988;15.470;2023-09-07T08:36:25;18.20;80.30
22006;DHT22;11167;46.988;15.470;2023-09-07T08:38:31;18.30;80.50
22006;DHT22;11167;46.988;15.470;2023-09-07T08:40:32;18.20;80.50
22006;DHT22;11167;46.988;15.470;2023-09-07T08:42:35;18.30;80.60
22006;DHT22;11167;46.988;15.470;2023-09-07T08:44:37;18.30;80.70
22006;DHT22;11167;46.988;15.470;2023-09-07T08:46:39;18.30;80.70
22006;DHT22;11167;46.988;15.470;2023-09-07T08:48:46;18.30;80.90
22006;DHT22;11167;46.988;15.470;2023-09-07T08:50:48;18.40;80.90
22006;DHT22;11167;46.988;15.470;2023-09-07T08:52:51;18.40;81.00
22006;DHT22;11167;46.988;15.470;2023-09-07T08:54:55;18.40;81.00
22006;DHT22;11167;46.988;15.470;2023-09-07T08:56:57;18.40;81.10
22006;DHT22;11167;46.988;15.470;2023-09-07T08:58:59;18.40;81.10
22006;DHT22;11167;46.988;15.470;2023-09-07T09:01:01;18.40;81.10
22006;DHT22;11167;46.988;15.470;2023-09-07T09:03:02;18.50;81.30
22006;DHT22;11167;46.988;15.470;2023-09-07T09:05:08;18.50;81.30
22006;DHT22;11167;46.988;15.470;2023-09-07T09:07:11;18.50;81.30
22006;DHT22;11167;46.988;15.470;2023-09-07T09:09:09;18.50;81.30
22006;DHT22;11167;46.988;15.470;2023-09-07T09:13:27;18.60;81.50
22006;DHT22;11167;46.988;15.470;2023-09-07T09:15:26;18.70;81.50
22006;DHT22;11167;46.988;15.470;2023-09-07T09:17:24;18.60;81.50
22006;DHT22;11167;46.988;15.470;2023-09-07T09:19:33;18.60;81.50
22006;DHT22;11167;46.988;15.470;2023-09-07T09:21:34;18.70;81.60
22006;DHT22;11167;46.988;15.470;2023-09-07T09:23:36;18.70;81.70
22006;DHT22;11167;46.988;15.470;2023-09-07T09:25:37;18.70;81.80
22006;DHT22;11167;46.988;15.470;2023-09-07T09:27:42;18.80;81.90
22006;DHT22;11167;46.988;15.470;2023-09-07T09:29:44;18.80;81.90
22006;DHT22;11167;46.988;15.470;2023-09-07T09:31:47;18.80;81.80
22006;DHT22;11167;46.988;15.470;2023-09-07T09:33:55;18.80;82.00
22006;DHT22;11167;46.988;15.470;2023-09-07T09:35:53;18.90;82.00
22006;DHT22;11167;46.988;15.470;2023-09-07T09:37:55;18.90;82.10
22006;DHT22;11167;46.988;15.470;2023-09-07T09:39:56;18.90;82.20
22006;DHT22;11167;46.988;15.470;2023-09-07T09:41:57;18.90;83.20
22006;DHT22;11167;46.988;15.470;2023-09-07T09:43:59;19.00;82.50
22006;DHT22;11167;46.988;15.470;2023-09-07T09:46:00;19.00;82.40
22006;DHT22;11167;46.988;15.470;2023-09-07T09:48:01;19.00;82.30
22006;DHT22;11167;46.988;15.470;2023-09-07T09:50:04;19.10;82.40
22006;DHT22;11167;46.988;15.470;2023-09-07T09:52:06;19.10;82.30
22006;DHT22;11167;46.988;15.470;2023-09-07T09:54:08;19.10;82.40
22006;DHT22;11167;46.988;15.470;2023-09-07T09:56:09;19.20;82.40
22006;DHT22;11167;46.988;15.470;2023-09-07T09:58:10;19.20;82.60
22006;DHT22;11167;46.988;15.470;2023-09-07T10:00:12;19.20;82.50
22006;DHT22;11167;46.988;15.470;2023-09-07T10:02:21;19.30;82.50
22006;DHT22;11167;46.988;15.470;2023-09-07T10:04:22;19.30;82.40
22006;DHT22;11167;46.988;15.470;2023-09-07T10:06:24;19.30;82.30
22006;DHT22;11167;46.988;15.470;2023-09-07T10:08:26;19.30;82.30
22006;DHT22;11167;46.988;15.470;2023-09-07T10:10:31;19.40;82.30
22006;DHT22;11167;46.988;15.470;2023-09-07T10:12:39;19.40;82.40
22006;DHT22;11167;46.988;15.470;2023-09-07T10:14:38;19.40;82.50
22006;DHT22;11167;46.988;15.470;2023-09-07T10:16:43;19.50;82.40
22006;DHT22;11167;46.988;15.470;2023-09-07T10:18:44;19.50;82.30
22006;DHT22;11167;46.988;15.470;2023-09-07T10:20:54;19.50;82.30
22006;DHT22;11167;46.988;15.470;2023-09-07T10:23:04;19.60;82.30
22006;DHT22;11167;46.988;15.470;2023-09-07T10:25:05;19.60;82.30
22006;DHT22;11167;46.988;15.470;2023-09-07T10:27:08;19.60;82.10
22006;DHT22;11167;46.988;15.470;2023-09-07T10:29:11;19.70;82.10
22006;DHT22;11167;46.988;15.470;2023-09-07T10:31:19;19.70;82.20
22006;DHT22;11167;46.988;15.470;2023-09-07T10:33:21;19.70;82.00
22006;DHT22;11167;46.988;15.470;2023-09-07T10:35:22;19.70;81.90
22006;DHT22;11167;46.988;15.470;2023-09-07T10:37:27;19.80;81.90
22006;DHT22;11167;46.988;15.470;2023-09-07T10:39:28;19.80;81.80
22006;DHT22;11167;46.988;15.470;2023-09-07T10:41:39;19.80;81.70
22006;DHT22;11167;46.988;15.470;2023-09-07T10:43:32;19.90;81.70
22006;DHT22;11167;46.988;15.470;2023-09-07T10:45:33;19.90;81.70
22006;DHT22;11167;46.988;15.470;2023-09-07T10:47:35;19.90;81.60
22006;DHT22;11167;46.988;15.470;2023-09-07T10:49:36;20.00;81.60
22006;DHT22;11167;46.988;15.470;2023-09-07T10:51:40;20.00;81.60
22006;DHT22;11167;46.988;15.470;2023-09-07T10:53:41;20.00;81.50
22006;DHT22;11167;46.988;15.470;2023-09-07T10:55:42;20.10;81.50
22006;DHT22;11167;46.988;15.470;2023-09-07T10:57:44;20.10;81.40
22006;DHT22;11167;46.988;15.470;2023-09-07T10:59:45;20.10;81.30
22006;DHT22;11167;46.988;15.470;2023-09-07T11:01:46;20.20;81.40
22006;DHT22;11167;46.988;15.470;2023-09-07T11:03:50;20.20;81.40
22006;DHT22;11167;46.988;15.470;2023-09-07T11:05:51;20.20;81.50
22006;DHT22;11167;46.988;15.470;2023-09-07T11:07:53;20.30;81.30
22006;DHT22;11167;46.988;15.470;2023-09-07T11:09:55;20.30;81.30
22006;DHT22;11167;46.988;15.470;2023-09-07T11:11:56;20.30;82.00
22006;DHT22;11167;46.988;15.470;2023-09-07T11:13:57;20.40;81.50
22006;DHT22;11167;46.988;15.470;2023-09-07T11:18:12;20.30;81.30
22006;DHT22;11167;46.988;15.470;2023-09-07T11:20:13;20.50;81.40
22006;DHT22;11167;46.988;15.470;2023-09-07T11:22:14;20.50;81.30
22006;DHT22;11167;46.988;15.470;2023-09-07T11:24:15;20.60;82.10
22006;DHT22;11167;46.988;15.470;2023-09-07T11:26:17;20.60;81.30
22006;DHT22;11167;46.988;15.470;2023-09-07T11:28:18;20.60;81.20
22006;DHT22;11167;46.988;15.470;2023-09-07T11:30:19;20.60;81.10
22006;DHT22;11167;46.988;15.470;2023-09-07T11:32:20;20.70;81.20
22006;DHT22;11167;46.988;15.470;2023-09-07T11:34:22;20.70;81.20
22006;DHT22;11167;46.988;15.470;2023-09-07T11:36:23;20.70;81.30
22006;DHT22;11167;46.988;15.470;2023-09-07T11:38:28;20.80;81.20
22006;DHT22;11167;46.988;15.470;2023-09-07T11:40:27;20.80;81.20
22006;DHT22;11167;46.988;15.470;2023-09-07T11:42:28;20.90;81.30
22006;DHT22;11167;46.988;15.470;2023-09-07T11:44:29;20.90;81.20
22006;DHT22;11167;46.988;15.470;2023-09-07T11:46:30;21.00;81.20
22006;DHT22;11167;46.988;15.470;2023-09-07T11:48:31;21.00;81.20
22006;DHT22;11167;46.988;15.470;2023-09-07T11:50:32;21.00;81.20
22006;DHT22;11167;46.988;15.470;2023-09-07T11:52:33;21.10;81.40
22006;DHT22;11167;46.988;15.470;2023-09-07T11:54:35;21.10;81.20
22006;DHT22;11167;46.988;15.470;2023-09-07T11:56:36;21.10;81.20
22006;DHT22;11167;46.988;15.470;2023-09-07T11:58:39;21.20;81.20
22006;DHT22;11167;46.988;15.470;2023-09-07T12:00:39;21.20;81.20
22006;DHT22;11167;46.988;15.470;2023-09-07T12:02:42;21.30;81.20
22006;DHT22;11167;46.988;15.470;2023-09-07T12:04:43;21.30;80.90
22006;DHT22;11167;46.988;15.470;2023-09-07T12:06:44;21.30;81.00
22006;DHT22;11167;46.988;15.470;2023-09-07T12:09:07;21.40;81.00
22006;DHT22;11167;46.988;15.470;2023-09-07T12:11:08;21.40;81.00
22006;DHT22;11167;46.988;15.470;2023-09-07T12:13:09;21.50;81.10
22006;DHT22;11167;46.988;15.470;2023-09-07T12:15:10;21.50;81.10
22006;DHT22;11167;46.988;15.470;2023-09-07T12:17:14;21.60;81.10
22006;DHT22;11167;46.988;15.470;2023-09-07T12:19:15;21.60;81.10
22006;DHT22;11167;46.988;15.470;2023-09-07T12:21:17;21.60;81.10
22006;DHT22;11167;46.988;15.470;2023-09-07T12:23:18;21.70;81.20
22006;DHT22;11167;46.988;15.470;2023-09-07T12:25:19;21.70;81.10
22006;DHT22;11167;46.988;15.470;2023-09-07T12:27:20;21.80;81.10
22006;DHT22;11167;46.988;15.470;2023-09-07T12:29:21;21.80;81.10
22006;DHT22;11167;46.988;15.470;2023-09-07T12:31:22;21.80;80.90
22006;DHT22;11167;46.988;15.470;2023-09-07T12:33:23;21.80;80.90
22006;DHT22;11167;46.988;15.470;2023-09-07T12:35:24;21.90;81.00
22006;DHT22;11167;46.988;15.470;2023-09-07T12:37:24;21.90;80.90
22006;DHT22;11167;46.988;15.470;2023-09-07T12:39:25;22.00;81.00
22006;DHT22;11167;46.988;15.470;2023-09-07T12:41:29;22.00;81.00
22006;DHT22;11167;46.988;15.470;2023-09-07T12:43:32;22.00;80.90
22006;DHT22;11167;46.988;15.470;2023-09-07T12:45:34;22.10;81.10
22006;DHT22;11167;46.988;15.470;2023-09-07T12:47:34;22.10;80.90
22006;DHT22;11167;46.988;15.470;2023-09-07T12:49:36;22.20;81.00
22006;DHT22;11167;46.988;15.470;2023-09-07T12:51:37;22.20;81.00
22006;DHT22;11167;46.988;15.470;2023-09-07T12:53:38;22.30;81.00
22006;DHT22;11167;46.988;15.470;2023-09-07T12:55:40;22.30;81.00
22006;DHT22;11167;46.988;15.470;2023-09-07T12:57:41;22.30;81.10
22006;DHT22;11167;46.988;15.470;2023-09-07T12:59:43;22.40;81.00
22006;DHT22;11167;46.988;15.470;2023-09-07T13:01:44;22.40;81.00
22006;DHT22;11167;46.988;15.470;2023-09-07T13:03:46;22.40;80.90
22006;DHT22;11167;46.988;15.470;2023-09-07T13:05:47;22.50;80.80
22006;DHT22;11167;46.988;15.470;2023-09-07T13:07:48;22.50;80.80
22006;DHT22;11167;46.988;15.470;2023-09-07T13:09:49;22.60;80.80
22006;DHT22;11167;46.988;15.470;2023-09-07T13:11:50;22.60;80.70
22006;DHT22;11167;46.988;15.470;2023-09-07T13:13:51;22.60;80.70
22006;DHT22;11167;46.988;15.470;2023-09-07T13:15:53;22.70;80.80
22006;DHT22;11167;46.988;15.470;2023-09-07T13:17:54;22.70;80.70
22006;DHT22;11167;46.988;15.470;2023-09-07T13:19:54;22.70;80.60
22006;DHT22;11167;46.988;15.470;2023-09-07T13:21:55;22.80;80.60
22006;DHT22;11167;46.988;15.470;2023-09-07T13:23:56;22.80;80.60
22006;DHT22;11167;46.988;15.470;2023-09-07T13:26:08;22.90;80.70
22006;DHT22;11167;46.988;15.470;2023-09-07T13:28:08;22.90;80.80
22006;DHT22;11167;46.988;15.470;2023-09-07T13:30:09;23.00;80.70
22006;DHT22;11167;46.988;15.470;2023-09-07T13:32:12;23.00;80.60